createdAt,value
2018-11-10T00:00:37.954Z,55.47
2018-11-10T00:03:09.972Z,54.80
2018-11-10T00:05:41.950Z,58.20
2018-11-10T00:08:12.226Z,59.60
2018-11-10T00:10:44.945Z,61.93
2018-11-10T00:13:14.864Z,58.87
2018-11-10T00:15:45.396Z,61.97
2018-11-10T00:18:16.951Z,61.53
2018-11-10T00:20:47.565Z,61.47
2018-11-10T00:23:17.981Z,61.93
2018-11-10T00:25:47.870Z,62.73
2018-11-10T00:28:21.046Z,64.17
2018-11-10T00:30:52.933Z,67.37
2018-11-10T00:33:23.111Z,62.00
2018-11-10T00:35:53.961Z,64.23
2018-11-10T00:38:26.813Z,63.30
2018-11-10T00:40:58.855Z,64.10
2018-11-10T00:43:32.413Z,63.80
2018-11-10T00:46:02.259Z,66.70
2018-11-10T00:48:32.019Z,61.17
2018-11-10T00:51:02.849Z,65.10
2018-11-10T00:53:33.972Z,64.23
2018-11-10T00:56:06.266Z,65.80
2018-11-10T00:58:36.040Z,60.83
2018-11-10T01:01:06.002Z,64.70
2018-11-10T01:03:38.040Z,66.93
2018-11-10T01:06:09.026Z,62.87
2018-11-10T01:08:38.637Z,63.73
2018-11-10T01:11:10.302Z,64.67
2018-11-10T01:13:42.038Z,61.80
2018-11-10T01:16:14.533Z,61.73
2018-11-10T01:18:44.999Z,60.23
2018-11-10T01:21:15.545Z,62.53
2018-11-10T01:23:46.185Z,63.80
2018-11-10T01:26:16.063Z,63.23
2018-11-10T01:28:46.931Z,60.90
2018-11-10T01:31:17.399Z,60.20
2018-11-10T01:33:48.059Z,58.23
2018-11-10T01:36:19.298Z,62.37
2018-11-10T01:38:49.586Z,62.10
2018-11-10T01:41:20.708Z,62.27
2018-11-10T01:43:51.042Z,59.50
2018-11-10T01:46:22.144Z,56.87
2018-11-10T01:48:52.426Z,58.00
2018-11-10T01:51:23.353Z,55.87
2018-11-10T01:53:53.353Z,55.13
2018-11-10T01:56:23.901Z,58.13
2018-11-10T01:58:54.395Z,52.97
2018-11-10T02:01:24.893Z,50.13
2018-11-10T02:03:55.825Z,51.10
2018-11-10T02:06:26.063Z,50.37
2018-11-10T02:08:58.244Z,50.20
2018-11-10T02:11:29.577Z,52.77
2018-11-10T02:14:00.563Z,51.20
2018-11-10T02:16:31.348Z,51.00
2018-11-10T02:19:01.641Z,48.17
2018-11-10T02:21:32.579Z,50.03
2018-11-10T02:24:02.425Z,50.77
2018-11-10T02:26:33.790Z,50.13
2018-11-10T02:29:03.401Z,48.73
2018-11-10T02:31:35.212Z,50.30
2018-11-10T02:34:06.030Z,48.27
2018-11-10T02:36:38.326Z,48.20
2018-11-10T02:39:09.990Z,47.90
2018-11-10T02:41:41.707Z,49.80
2018-11-10T02:44:13.543Z,52.77
2018-11-10T02:46:44.422Z,52.93
2018-11-10T02:49:14.526Z,48.57
2018-11-10T02:51:45.472Z,50.33
2018-11-10T02:54:16.605Z,52.53
2018-11-10T02:56:47.813Z,52.87
2018-11-10T02:59:17.703Z,50.87
2018-11-10T03:01:49.110Z,51.20
2018-11-10T03:04:20.738Z,50.20
2018-11-10T03:06:52.533Z,51.90
2018-11-10T03:09:23.539Z,53.23
2018-11-10T03:11:57.089Z,53.97
2018-11-10T03:14:27.527Z,51.30
2018-11-10T03:16:58.432Z,52.43
2018-11-10T03:19:29.195Z,52.87
2018-11-10T03:21:59.304Z,53.30
2018-11-10T03:24:29.478Z,51.70
2018-11-10T03:26:59.859Z,52.27
2018-11-10T03:29:30.691Z,54.30
2018-11-10T03:32:00.642Z,51.50
2018-11-10T03:34:30.426Z,52.40
2018-11-10T03:37:02.141Z,57.30
2018-11-10T03:39:32.903Z,53.37
2018-11-10T03:42:03.406Z,53.07
2018-11-10T03:44:33.900Z,54.03
2018-11-10T03:47:04.696Z,52.67
2018-11-10T03:49:35.509Z,54.70
2018-11-10T03:52:06.003Z,53.27
2018-11-10T03:54:36.605Z,59.37
2018-11-10T03:57:07.775Z,56.93
2018-11-10T03:59:37.726Z,53.90
2018-11-10T04:02:07.674Z,54.63
2018-11-10T04:04:38.702Z,58.53
2018-11-10T04:07:09.775Z,55.40
2018-11-10T04:09:40.573Z,60.03
2018-11-10T04:12:10.981Z,61.60
2018-11-10T04:14:42.694Z,58.83
2018-11-10T04:17:12.782Z,56.80
2018-11-10T04:19:43.697Z,60.07
2018-11-10T04:22:14.947Z,61.07
2018-11-10T04:24:45.341Z,60.23
2018-11-10T04:27:14.867Z,60.43
2018-11-10T04:29:45.534Z,59.67
2018-11-10T04:32:15.969Z,62.20
2018-11-10T04:34:46.651Z,58.63
2018-11-10T04:37:17.195Z,58.50
2018-11-10T04:39:48.265Z,63.60
2018-11-10T04:42:17.975Z,57.67
2018-11-10T04:44:47.991Z,57.67
2018-11-10T04:47:19.441Z,56.83
2018-11-10T04:49:49.835Z,60.73
2018-11-10T04:52:20.085Z,59.33
2018-11-10T04:54:51.046Z,55.80
2018-11-10T04:57:20.985Z,57.40
2018-11-10T04:59:52.038Z,57.17
2018-11-10T05:02:22.944Z,55.73
2018-11-10T05:04:53.572Z,54.73
2018-11-10T05:07:24.109Z,57.00
2018-11-10T05:09:55.076Z,54.90
2018-11-10T05:12:26.321Z,55.93
2018-11-10T05:14:56.593Z,53.50
2018-11-10T05:17:27.166Z,54.77
2018-11-10T05:19:58.673Z,51.57
2018-11-10T05:22:28.794Z,51.57
2018-11-10T05:25:03.684Z,52.73
2018-11-10T05:27:33.829Z,54.77
2018-11-10T05:30:05.125Z,52.60
2018-11-10T05:32:38.261Z,52.07
2018-11-10T05:35:11.165Z,49.43
2018-11-10T05:37:42.359Z,49.60
2018-11-10T05:40:13.182Z,49.53
2018-11-10T05:42:45.208Z,50.50
2018-11-10T05:45:16.786Z,51.60
2018-11-10T05:47:49.992Z,45.80
2018-11-10T05:50:20.034Z,47.33
2018-11-10T05:52:50.705Z,48.63
2018-11-10T05:55:21.107Z,46.17
2018-11-10T05:57:51.454Z,50.20
2018-11-10T06:00:22.381Z,47.50
2018-11-10T06:02:52.877Z,47.37
2018-11-10T06:05:23.583Z,49.03
2018-11-10T06:07:54.021Z,46.10
2018-11-10T06:10:24.590Z,47.30
2018-11-10T06:12:55.213Z,48.43
2018-11-10T06:15:25.738Z,48.70
2018-11-10T06:17:56.885Z,48.10
2018-11-10T06:20:27.316Z,51.03
2018-11-10T06:22:58.856Z,49.50
2018-11-10T06:25:29.040Z,49.03
2018-11-10T06:27:59.277Z,49.30
2018-11-10T06:30:29.652Z,50.17
2018-11-10T06:33:00.478Z,49.53
2018-11-10T06:35:31.295Z,50.77
2018-11-10T06:38:01.528Z,50.77
2018-11-10T06:40:32.461Z,51.07
2018-11-10T06:43:03.767Z,48.97
2018-11-10T06:45:35.276Z,50.90
2018-11-10T06:48:04.970Z,50.57
2018-11-10T06:50:35.461Z,48.80
2018-11-10T06:53:06.086Z,48.57
2018-11-10T06:55:36.528Z,49.50
2018-11-10T06:58:06.724Z,47.80
2018-11-10T07:00:37.596Z,49.27
2018-11-10T07:03:08.071Z,48.17
2018-11-10T07:05:38.576Z,48.63
2018-11-10T07:08:08.608Z,47.37
2018-11-10T07:10:38.743Z,49.17
2018-11-10T07:13:10.138Z,49.27
2018-11-10T07:15:40.711Z,50.37
2018-11-10T07:18:11.277Z,53.60
2018-11-10T07:20:41.680Z,48.57
2018-11-10T07:23:11.758Z,50.33
2018-11-10T07:25:42.578Z,49.90
2018-11-10T07:28:13.398Z,50.53
2018-11-10T07:30:43.990Z,51.27
2018-11-10T07:33:15.210Z,62.77
2018-11-10T07:35:45.054Z,70.53
2018-11-10T07:38:15.616Z,51.47
2018-11-10T07:40:46.637Z,54.17
2018-11-10T07:43:17.308Z,55.27
2018-11-10T07:45:47.897Z,62.40
2018-11-10T07:48:18.536Z,52.47
2018-11-10T07:50:49.128Z,51.50
2018-11-10T07:53:20.308Z,49.27
2018-11-10T07:55:51.103Z,50.67
2018-11-10T07:58:20.947Z,52.00
2018-11-10T08:00:50.766Z,51.43
2018-11-10T08:03:23.537Z,49.97
2018-11-10T08:05:53.297Z,51.10
2018-11-10T08:08:23.882Z,51.73
2018-11-10T08:10:53.965Z,55.07
2018-11-10T08:13:24.698Z,59.37
2018-11-10T08:15:59.760Z,51.77
2018-11-10T08:18:32.098Z,48.90
2018-11-10T08:21:01.990Z,48.37
2018-11-10T08:23:34.137Z,49.23
2018-11-10T08:26:06.167Z,50.77
2018-11-10T08:28:39.265Z,46.03
2018-11-10T08:31:11.107Z,48.97
2018-11-10T08:33:42.071Z,47.33
2018-11-10T08:36:14.021Z,48.33
2018-11-10T08:38:44.780Z,46.13
2018-11-10T08:41:15.039Z,43.60
2018-11-10T08:43:45.501Z,45.50
2018-11-10T08:46:16.672Z,45.07
2018-11-10T08:48:47.282Z,47.73
2018-11-10T08:51:17.974Z,46.17
2018-11-10T08:53:48.292Z,42.67
2018-11-10T08:56:18.286Z,44.97
2018-11-10T08:58:48.118Z,42.43
2018-11-10T09:01:19.053Z,41.33
2018-11-10T09:03:49.617Z,41.87
2018-11-10T09:06:20.849Z,44.17
2018-11-10T09:08:51.018Z,41.70
2018-11-10T09:11:21.449Z,42.43
2018-11-10T09:13:51.248Z,41.77
2018-11-10T09:16:22.473Z,40.60
2018-11-10T09:18:53.842Z,41.27
2018-11-10T09:21:23.813Z,39.17
2018-11-10T09:23:54.657Z,40.17
2018-11-10T09:26:29.673Z,38.47
2018-11-10T09:29:01.481Z,38.53
2018-11-10T09:31:33.116Z,38.43
2018-11-10T09:34:06.541Z,38.60
2018-11-10T09:36:37.532Z,36.23
2018-11-10T09:39:09.426Z,38.33
2018-11-10T09:41:38.970Z,36.57
2018-11-10T09:44:09.416Z,37.87
2018-11-10T09:46:39.055Z,37.10
2018-11-10T09:49:10.249Z,37.10
2018-11-10T09:51:44.446Z,37.67
2018-11-10T09:54:14.257Z,36.40
2018-11-10T09:56:44.854Z,37.70
2018-11-10T09:59:15.110Z,34.30
2018-11-10T10:01:45.403Z,34.57
2018-11-10T10:04:15.500Z,35.50
2018-11-10T10:06:45.333Z,34.23
2018-11-10T10:09:16.171Z,35.60
2018-11-10T10:11:47.631Z,34.07
2018-11-10T10:14:17.553Z,35.50
2018-11-10T10:16:48.505Z,33.13
2018-11-10T10:19:18.904Z,33.57
2018-11-10T10:21:48.524Z,33.13
2018-11-10T10:24:18.449Z,46.30
2018-11-10T10:26:49.047Z,43.20
2018-11-10T10:29:20.784Z,35.73
2018-11-10T10:31:51.458Z,34.07
2018-11-10T10:34:22.915Z,33.13
2018-11-10T10:36:53.044Z,33.47
2018-11-10T10:39:23.282Z,34.70
2018-11-10T10:41:54.027Z,32.53
2018-11-10T10:44:27.757Z,32.73
2018-11-10T10:46:58.166Z,32.00
2018-11-10T10:49:29.715Z,31.43
2018-11-10T10:52:02.390Z,30.03
2018-11-10T10:54:32.737Z,32.53
2018-11-10T10:57:03.901Z,33.20
2018-11-10T10:59:33.773Z,34.10
2018-11-10T11:02:09.711Z,44.23
2018-11-10T11:04:48.625Z,35.03
2018-11-10T11:07:20.930Z,31.77
2018-11-10T11:09:51.521Z,31.97
2018-11-10T11:12:23.794Z,37.33
2018-11-10T11:14:53.942Z,32.87
2018-11-10T11:17:24.725Z,32.90
2018-11-10T11:19:54.743Z,33.00
2018-11-10T11:22:26.600Z,34.33
2018-11-10T11:24:59.639Z,32.60
2018-11-10T11:27:31.641Z,30.17
2018-11-10T11:30:03.289Z,32.90
2018-11-10T11:32:32.862Z,33.93
2018-11-10T11:35:02.909Z,30.30
2018-11-10T11:37:39.950Z,29.90
2018-11-10T11:40:11.712Z,31.40
2018-11-10T11:42:43.473Z,31.03
2018-11-10T11:45:14.742Z,29.03
2018-11-10T11:47:46.121Z,29.50
2018-11-10T11:50:17.933Z,31.03
2018-11-10T11:52:48.845Z,42.90
2018-11-10T11:55:21.717Z,34.77
2018-11-10T11:57:52.238Z,30.40
2018-11-10T12:00:22.058Z,27.37
2018-11-10T12:02:53.986Z,29.23
2018-11-10T12:05:31.027Z,29.70
2018-11-10T12:08:00.979Z,27.90
2018-11-10T12:10:30.772Z,30.90
2018-11-10T12:13:03.128Z,29.27
2018-11-10T12:15:32.946Z,30.03
2018-11-10T12:18:04.560Z,30.60
2018-11-10T12:20:38.040Z,30.90
2018-11-10T12:23:08.268Z,27.80
2018-11-10T12:25:38.378Z,27.70
2018-11-10T12:28:07.964Z,27.40
2018-11-10T12:30:39.153Z,26.50
2018-11-10T12:33:09.777Z,27.03
2018-11-10T12:35:39.439Z,26.90
2018-11-10T12:38:10.430Z,27.30
2018-11-10T12:40:40.164Z,25.20
2018-11-10T12:43:11.281Z,26.73
2018-11-10T12:45:43.239Z,26.07
2018-11-10T12:48:12.935Z,30.70
2018-11-10T12:50:43.942Z,33.90
2018-11-10T12:53:15.095Z,30.10
2018-11-10T12:55:45.338Z,26.63
2018-11-10T12:58:16.312Z,25.83
2018-11-10T13:00:46.197Z,27.17
2018-11-10T13:03:17.816Z,25.00
2018-11-10T13:05:51.079Z,26.10
2018-11-10T13:08:21.556Z,24.30
2018-11-10T13:10:52.509Z,25.73
2018-11-10T13:13:22.784Z,25.80
2018-11-10T13:15:52.351Z,25.97
2018-11-10T13:18:23.369Z,24.90
2018-11-10T13:20:53.831Z,23.40
2018-11-10T13:23:27.410Z,24.63
2018-11-10T13:25:58.304Z,23.93
2018-11-10T13:28:29.143Z,25.03
2018-11-10T13:31:00.435Z,26.53
2018-11-10T13:33:30.519Z,25.20
2018-11-10T13:36:03.866Z,25.13
2018-11-10T13:38:36.365Z,23.93
2018-11-10T13:41:08.193Z,26.60
2018-11-10T13:43:45.411Z,24.43
2018-11-10T13:46:17.600Z,30.17
2018-11-10T13:48:49.072Z,45.60
2018-11-10T13:51:22.028Z,30.93
2018-11-10T13:53:54.139Z,29.40
2018-11-10T13:56:25.427Z,27.80
2018-11-10T13:58:57.623Z,28.50
2018-11-10T14:01:31.235Z,27.17
2018-11-10T14:04:03.812Z,30.27
2018-11-10T14:06:34.566Z,30.77
2018-11-10T14:09:07.646Z,29.70
2018-11-10T14:11:38.913Z,32.10
2018-11-10T14:14:11.447Z,28.70
2018-11-10T14:16:43.937Z,30.23
2018-11-10T14:19:16.412Z,30.00
2018-11-10T14:21:49.537Z,29.43
2018-11-10T14:24:20.715Z,29.17
2018-11-10T14:26:50.911Z,28.20
2018-11-10T14:29:21.179Z,28.27
2018-11-10T14:31:54.759Z,30.87
2018-11-10T14:34:26.741Z,27.60
2018-11-10T14:36:58.601Z,31.20
2018-11-10T14:39:31.393Z,29.37
2018-11-10T14:42:02.725Z,31.57
2018-11-10T14:44:34.907Z,29.70
2018-11-10T14:47:05.961Z,31.23
2018-11-10T14:49:36.500Z,30.20
2018-11-10T14:52:08.708Z,30.50
2018-11-10T14:54:40.861Z,28.87
2018-11-10T14:57:14.081Z,30.00
2018-11-10T14:59:45.270Z,31.13
2018-11-10T15:02:18.702Z,28.40
2018-11-10T15:04:49.093Z,28.80
2018-11-10T15:07:20.367Z,29.80
2018-11-10T15:09:56.847Z,28.87
2018-11-10T15:12:29.148Z,28.10
2018-11-10T15:15:01.201Z,28.27
2018-11-10T15:17:33.119Z,29.13
2018-11-10T15:20:04.569Z,29.90
2018-11-10T15:22:35.277Z,31.63
2018-11-10T15:25:09.718Z,29.70
2018-11-10T15:27:39.915Z,30.90
2018-11-10T15:31:39.377Z,49.87
2018-11-10T15:34:09.613Z,35.67
2018-11-10T15:36:39.748Z,34.47
2018-11-10T15:39:10.196Z,31.30
2018-11-10T15:41:39.884Z,31.93
2018-11-10T15:44:11.407Z,31.00
2018-11-10T15:46:42.933Z,32.03
2018-11-10T15:49:13.298Z,33.70
2018-11-10T15:51:44.779Z,34.40
2018-11-10T15:54:18.381Z,33.30
2018-11-10T15:56:48.152Z,33.83
2018-11-10T15:59:20.161Z,33.17
2018-11-10T16:01:51.609Z,31.97
2018-11-10T16:04:24.166Z,32.57
2018-11-10T16:06:54.190Z,34.03
2018-11-10T16:09:24.831Z,32.27
2018-11-10T16:11:56.581Z,33.40
2018-11-10T16:14:28.081Z,32.67
2018-11-10T16:17:03.613Z,34.50
2018-11-10T16:19:34.192Z,33.80
2018-11-10T16:22:07.423Z,31.30
2018-11-10T16:24:37.693Z,32.30
2018-11-10T16:27:11.063Z,32.70
2018-11-10T16:29:47.103Z,32.00
2018-11-10T16:32:17.421Z,32.80
2018-11-10T16:34:48.827Z,34.83
2018-11-10T16:37:18.790Z,35.00
2018-11-10T16:39:49.829Z,35.10
2018-11-10T16:42:21.313Z,34.60
2018-11-10T16:44:54.168Z,56.07
2018-11-10T16:47:28.690Z,40.10
2018-11-10T16:50:01.910Z,38.03
2018-11-10T16:52:34.976Z,34.37
2018-11-10T16:55:07.591Z,34.87
2018-11-10T16:57:39.396Z,36.27
2018-11-10T17:00:12.363Z,37.80
2018-11-10T17:02:44.343Z,45.83
2018-11-10T17:05:16.363Z,41.37
2018-11-10T17:07:49.799Z,34.50
2018-11-10T17:10:23.181Z,36.70
2018-11-10T17:12:53.633Z,33.67
2018-11-10T17:15:25.993Z,36.70
2018-11-10T17:17:59.530Z,35.37
2018-11-10T17:20:31.679Z,35.47
2018-11-10T17:23:01.243Z,34.53
2018-11-10T17:25:32.592Z,36.10
2018-11-10T17:28:06.601Z,38.13
2018-11-10T17:30:38.978Z,37.30
2018-11-10T17:33:09.975Z,38.73
2018-11-10T17:35:39.711Z,37.27
2018-11-10T17:38:10.664Z,37.60
2018-11-10T17:40:40.935Z,37.87
2018-11-10T17:43:13.297Z,37.00
2018-11-10T17:45:44.437Z,38.37
2018-11-10T17:48:17.011Z,37.93
2018-11-10T17:50:49.717Z,37.07
2018-11-10T17:53:20.673Z,36.80
2018-11-10T17:55:51.295Z,38.50
2018-11-10T17:58:25.934Z,37.80
2018-11-10T18:00:57.373Z,37.00
2018-11-10T18:03:27.991Z,36.37
2018-11-10T18:06:02.434Z,37.00
2018-11-10T18:08:34.996Z,36.57
2018-11-10T18:11:13.353Z,34.50
2018-11-10T18:13:45.045Z,37.40
2018-11-10T18:16:16.225Z,35.07
2018-11-10T18:18:47.407Z,35.07
2018-11-10T18:21:20.724Z,36.63
2018-11-10T18:23:51.746Z,36.63
2018-11-10T18:26:22.053Z,33.40
2018-11-10T18:28:52.720Z,35.33
2018-11-10T18:31:22.875Z,35.63
2018-11-10T18:33:53.922Z,33.33
2018-11-10T18:36:25.727Z,34.17
2018-11-10T18:39:02.454Z,34.90
2018-11-10T18:41:41.031Z,37.97
2018-11-10T18:44:12.129Z,49.17
2018-11-10T18:46:44.617Z,38.40
2018-11-10T18:49:17.594Z,39.63
2018-11-10T18:51:48.880Z,36.07
2018-11-10T18:54:19.709Z,36.10
2018-11-10T18:56:51.886Z,40.90
2018-11-10T18:59:22.578Z,39.40
2018-11-10T19:01:54.326Z,35.93
2018-11-10T19:11:26.421Z,36.50
2018-11-10T19:14:02.202Z,34.73
2018-11-10T19:16:33.125Z,36.47
2018-11-10T19:19:02.920Z,35.13
2018-11-10T19:21:33.195Z,36.27
2018-11-10T19:24:03.993Z,36.33
2018-11-10T19:26:38.897Z,37.20
2018-11-10T19:29:11.469Z,39.67
2018-11-10T19:31:42.448Z,38.90
2018-11-10T19:34:14.182Z,37.10
2018-11-10T19:36:48.748Z,36.80
2018-11-10T19:39:20.404Z,35.87
2018-11-10T19:41:50.880Z,38.60
2018-11-10T19:44:21.402Z,37.43
2018-11-10T19:46:53.027Z,37.87
2018-11-10T19:49:24.258Z,38.10
2018-11-10T19:51:53.980Z,35.03
2018-11-10T19:54:25.247Z,35.47
2018-11-10T19:56:55.424Z,37.17
2018-11-10T19:59:29.587Z,33.10
2018-11-10T20:02:03.227Z,38.33
2018-11-10T20:04:34.968Z,33.60
2018-11-10T20:07:06.354Z,38.10
2018-11-10T20:09:39.041Z,34.90
2018-11-10T20:12:12.542Z,36.40
2018-11-10T20:14:43.977Z,36.63
2018-11-10T20:17:15.275Z,36.20
2018-11-10T20:19:46.528Z,37.50
2018-11-10T20:22:18.417Z,34.77
2018-11-10T20:24:50.370Z,37.57
2018-11-10T20:27:23.058Z,37.20
2018-11-10T20:29:55.001Z,37.20
2018-11-10T20:32:27.832Z,39.00
2018-11-10T20:35:01.021Z,37.23
2018-11-10T20:37:31.418Z,37.57
2018-11-10T20:40:01.724Z,37.90
2018-11-10T20:42:33.392Z,39.10
2018-11-10T20:45:07.836Z,38.53
2018-11-10T20:47:39.875Z,37.70
2018-11-10T20:50:14.730Z,35.83
2018-11-10T20:52:46.867Z,39.63
2018-11-10T20:55:16.876Z,38.80
2018-11-10T20:57:47.426Z,39.20
2018-11-10T21:00:19.583Z,37.83
2018-11-10T21:02:52.218Z,37.63
2018-11-10T21:05:25.103Z,41.47
2018-11-10T21:08:02.656Z,38.07
2018-11-10T21:10:34.246Z,39.37
2018-11-10T21:13:05.375Z,38.80
2018-11-10T21:15:37.313Z,40.73
2018-11-10T21:18:09.784Z,40.20
2018-11-10T21:20:39.842Z,41.10
2018-11-10T21:23:12.088Z,41.03
2018-11-10T21:25:43.795Z,39.80
2018-11-10T21:28:14.807Z,41.67
2018-11-10T21:30:47.198Z,42.33
2018-11-10T21:33:18.492Z,43.00
2018-11-10T21:35:49.411Z,41.10
2018-11-10T21:38:21.374Z,42.30
2018-11-10T21:40:53.878Z,41.77
2018-11-10T21:43:26.749Z,44.90
2018-11-10T21:45:57.319Z,42.00
2018-11-10T21:48:27.923Z,39.83
2018-11-10T21:50:59.094Z,43.57
2018-11-10T21:53:36.519Z,41.27
2018-11-10T21:56:09.114Z,40.93
2018-11-10T21:58:40.037Z,42.10
2018-11-10T22:01:12.186Z,42.00
2018-11-10T22:03:44.039Z,41.13
2018-11-10T22:06:15.669Z,41.87
2018-11-10T22:08:46.916Z,39.57
2018-11-10T22:11:16.720Z,41.80
2018-11-10T22:13:47.907Z,40.40
2018-11-10T22:16:19.162Z,41.03
2018-11-10T22:18:51.818Z,42.87
2018-11-10T22:21:22.478Z,39.63
2018-11-10T22:23:55.452Z,40.93
2018-11-10T22:26:27.669Z,44.60
2018-11-10T22:28:59.291Z,43.80
2018-11-10T22:31:31.991Z,39.07
2018-11-10T22:34:02.963Z,42.50
2018-11-10T22:36:34.330Z,42.60
2018-11-10T22:39:06.925Z,42.07
2018-11-10T22:41:38.165Z,42.80
2018-11-10T22:44:09.407Z,42.33
2018-11-10T22:46:41.256Z,39.90
2018-11-10T22:49:15.281Z,43.57
2018-11-10T22:51:48.904Z,43.33
2018-11-10T22:54:24.391Z,43.37
2018-11-10T22:56:57.772Z,39.80
2018-11-10T22:59:28.554Z,40.70
2018-11-10T23:02:01.189Z,41.10
2018-11-10T23:04:31.098Z,45.90
2018-11-10T23:07:02.769Z,41.67
2018-11-10T23:09:36.864Z,43.47
2018-11-10T23:12:10.337Z,40.63
2018-11-10T23:14:44.674Z,42.70
2018-11-10T23:17:15.510Z,40.93
2018-11-10T23:19:45.785Z,39.17
2018-11-10T23:22:16.116Z,42.60
2018-11-10T23:24:48.179Z,40.00
2018-11-10T23:27:20.052Z,39.27
2018-11-10T23:29:52.497Z,41.00
2018-11-10T23:32:25.213Z,43.47
2018-11-10T23:34:55.207Z,39.00
2018-11-10T23:37:27.282Z,41.43
2018-11-10T23:39:58.580Z,41.13
2018-11-10T23:42:30.015Z,40.27
2018-11-10T23:45:00.554Z,42.20
2018-11-10T23:47:32.656Z,40.93
2018-11-10T23:50:05.707Z,69.60
2018-11-10T23:52:38.525Z,74.90
2018-11-10T23:55:10.833Z,49.27
2018-11-10T23:57:40.733Z,43.47
